Thursday, January 18, 2018, 8:55 PM EST
Back to Local

KCXY, Harrisburg Capital City

Location: New Cumberland, PA, United States Lat: 40.217
Local Time: 8:55 PM EST ( 1:55 GMT) Lon: -76.85
Time Zone: US/Eastern Elev: 347 ft

Show me the last for .
Show Decoded

2018-01-18 19:56 METAR KCXY 190056Z 31005KT 10SM CLR 00/M10 A3007 RMK AO2 SLP188 T00001100 =
2018-01-18 18:56 METAR KCXY 182356Z 30003KT 10SM CLR 00/M10 A3006 RMK AO2 SLP184 T00001100 10039
                 20000 51019 =
2018-01-18 17:56 METAR KCXY 182256Z 31006KT 10SM CLR 01/M11 A3004 RMK AO2 SLP178 T00111106 =
2018-01-18 16:56 METAR KCXY 182156Z 32011KT 10SM CLR 02/M11 A3002 RMK AO2 SLP172 T00221106 =
2018-01-18 15:56 METAR KCXY 182056Z 30013G20KT 10SM CLR 03/M11 A3000 RMK AO2 SLP165 T00331111
                 55013 =
2018-01-18 14:56 METAR KCXY 181956Z 28007KT 10SM CLR 03/M12 A2999 RMK AO2 SLP162 T00331117 =
2018-01-18 13:56 METAR KCXY 181856Z 26010KT 10SM CLR 02/M12 A3001 RMK AO2 SLP169 T00171117 =
2018-01-18 12:56 METAR KCXY 181756Z 26011KT 10SM CLR 01/M12 A3004 RMK AO2 SLP178 T00111122 10011
                 21094 58029 =
2018-01-18 11:56 METAR KCXY 181656Z 27010G16KT 10SM CLR 00/M13 A3007 RMK AO2 SLP190 T00001133 =
2018-01-18 10:56 METAR KCXY 181556Z 28009KT 10SM CLR M01/M13 A3011 RMK AO2 SLP204 T10111133 =
2018-01-18 09:56 METAR KCXY 181456Z 26007KT 10SM CLR M03/M14 A3012 RMK AO2 SLP207 T10331139 50000
                 =
2018-01-18 08:56 METAR KCXY 181356Z 25007KT 10SM CLR M07/M15 A3012 RMK AO2 SLP207 T10671150 =
2018-01-18 07:56 METAR KCXY 181256Z 25006KT 10SM CLR M08/M15 A3013 RMK AO2 SLP211 T10781150 =
2018-01-18 06:56 METAR KCXY 181156Z 25007KT 10SM CLR M09/M16 A3013 RMK AO2 SLP209 T10891156 11078
                 21117 55008 =
2018-01-18 05:56 METAR KCXY 181056Z AUTO 27007KT 10SM CLR M09/M16 A3012 RMK AO2 SLP205 T10941156
                 =
2018-01-18 04:56 METAR KCXY 180956Z AUTO 28008KT 10SM CLR M10/M15 A3012 RMK AO2 SLP207 T11001150
                 =
2018-01-18 03:56 METAR KCXY 180856Z AUTO 27006KT 10SM CLR M12/M15 A3015 RMK AO2 PRESFR SLP217
                 T11171150 58025 =
2018-01-18 02:56 METAR KCXY 180756Z AUTO 26006KT 10SM CLR M11/M15 A3020 RMK AO2 SLP233 T11111150
                 =
2018-01-18 01:56 METAR KCXY 180656Z AUTO 27007KT 10SM CLR M11/M15 A3021 RMK AO2 SLP239 T11061150
                 =
2018-01-18 00:56 METAR KCXY 180556Z AUTO 26008KT 10SM CLR M10/M15 A3023 RMK AO2 SLP243 T11001150
                 11072 21106 58019 =
2018-01-17 23:56 METAR KCXY 180456Z AUTO 26009KT 10SM CLR M10/M15 A3025 RMK AO2 SLP251 T11001150
                 400001100 =
2018-01-17 22:56 METAR KCXY 180356Z AUTO 26006KT 10SM CLR M09/M14 A3027 RMK AO2 SLP258 T10941144
                 =
2018-01-17 21:56 METAR KCXY 180256Z AUTO 28007KT 10SM CLR M08/M14 A3028 RMK AO2 SLP262 T10831144
                 58004 =
2018-01-17 20:56 METAR KCXY 180156Z 29013KT 10SM CLR M07/M14 A3029 RMK AO2 SLP263 T10721139 =

Support USWX by starting your Amazon purchase here.